Time;durP1;ratioP1;P1;durP2;ratioP2;P2;SDS_P1;SDS_P2;PMS_P1;PMS_P2;Temp;Humidity;BMP_temperature;BMP_pressure;BME280_temperature;BME280_humidity;BME280_pressure;Samples;Min_cycle;Max_cycle;Signal;HPM_P1;HPM_P2
2021/10/18 00:01:47;;;;;;;29.30;21.63;;;8.80;81.60;;;;;;5064932;28;20826;-42
2021/10/18 00:04:14;;;;;;;37.63;20.50;;;8.80;81.80;;;;;;5078774;28;20582;-42
2021/10/18 00:06:40;;;;;;;30.93;20.47;;;8.80;81.90;;;;;;5063000;28;20450;-42
2021/10/18 00:09:07;;;;;;;31.37;19.63;;;8.80;82.00;;;;;;5063540;28;21033;-42
2021/10/18 00:11:38;;;;;;;33.17;19.43;;;8.70;81.80;;;;;;5085592;28;20457;-42
2021/10/18 00:14:06;;;;;;;29.73;17.50;;;8.70;81.90;;;;;;5077885;28;20445;-42
2021/10/18 00:16:36;;;;;;;31.37;18.30;;;8.70;81.70;;;;;;5082250;28;20462;-42
2021/10/18 00:19:04;;;;;;;32.10;18.80;;;8.70;81.70;;;;;;5081485;28;20485;-42
2021/10/18 00:21:31;;;;;;;32.23;19.87;;;8.70;81.70;;;;;;5072702;28;20465;-42
2021/10/18 00:23:58;;;;;;;29.57;19.77;;;8.70;81.80;;;;;;5080509;28;20476;-42
2021/10/18 00:26:25;;;;;;;36.70;20.50;;;8.60;82.00;;;;;;5061218;28;20483;-42
2021/10/18 00:28:51;;;;;;;27.20;18.60;;;8.60;81.90;;;;;;5081711;28;20464;-42
2021/10/18 00:31:19;;;;;;;30.07;18.67;;;8.60;82.00;;;;;;5080219;28;20455;-42
2021/10/18 00:33:46;;;;;;;31.40;19.60;;;8.60;81.90;;;;;;5077812;28;20464;-42
2021/10/18 00:36:13;;;;;;;26.53;18.47;;;8.60;82.00;;;;;;5076378;28;20445;-42
2021/10/18 00:38:41;;;;;;;31.13;19.47;;;8.50;82.00;;;;;;5076863;28;20806;-42
2021/10/18 00:41:08;;;;;;;33.80;20.13;;;8.50;82.10;;;;;;5079919;28;20538;-42
2021/10/18 00:43:35;;;;;;;28.13;19.87;;;8.50;82.10;;;;;;5075663;28;20523;-42
2021/10/18 00:46:02;;;;;;;29.37;17.80;;;8.40;82.10;;;;;;5062683;28;20445;-42
2021/10/18 00:48:29;;;;;;;30.50;18.80;;;8.50;82.00;;;;;;5062035;28;20453;-42
2021/10/18 00:50:57;;;;;;;29.07;19.47;;;8.40;82.00;;;;;;5074509;28;20455;-42
2021/10/18 00:53:26;;;;;;;28.20;18.63;;;8.50;81.60;;;;;;5077022;28;20461;-42
2021/10/18 00:55:54;;;;;;;26.37;17.97;;;8.40;81.40;;;;;;5078304;28;20821;-42
2021/10/18 00:58:21;;;;;;;30.73;17.50;;;8.40;81.30;;;;;;5079676;28;20822;-42
2021/10/18 01:00:49;;;;;;;27.33;16.83;;;8.40;81.40;;;;;;5081620;28;20543;-42
2021/10/18 01:03:18;;;;;;;24.07;16.47;;;8.30;81.30;;;;;;5080916;28;20481;-42
2021/10/18 01:05:46;;;;;;;29.77;17.57;;;8.30;81.30;;;;;;5078614;28;20458;-42
2021/10/18 01:08:14;;;;;;;24.90;16.40;;;8.20;81.20;;;;;;5058118;28;20984;-42
2021/10/18 01:10:41;;;;;;;23.10;16.30;;;8.20;81.10;;;;;;5073811;28;20461;-42
2021/10/18 01:13:08;;;;;;;27.07;16.53;;;8.20;81.00;;;;;;5078225;28;20453;-42
2021/10/18 01:15:35;;;;;;;27.30;16.50;;;8.20;80.90;;;;;;5057699;28;20464;-42
2021/10/18 01:18:02;;;;;;;24.20;15.93;;;8.10;80.90;;;;;;5075922;28;20453;-42
2021/10/18 01:20:33;;;;;;;24.33;16.00;;;8.10;81.00;;;;;;5078058;28;20472;-41
2021/10/18 01:23:01;;;;;;;24.17;17.13;;;8.10;80.90;;;;;;5075183;28;20898;-42
2021/10/18 01:25:28;;;;;;;26.00;16.60;;;8.10;80.80;;;;;;5078840;28;20453;-41
2021/10/18 01:27:55;;;;;;;22.80;15.90;;;8.00;80.80;;;;;;5071844;28;22108;-42
2021/10/18 01:30:23;;;;;;;21.60;15.00;;;8.00;81.10;;;;;;5076010;28;20873;-42
2021/10/18 01:32:50;;;;;;;24.20;17.23;;;7.90;81.10;;;;;;5065448;28;20462;-41
2021/10/18 01:35:18;;;;;;;25.27;16.17;;;7.90;81.20;;;;;;5077299;28;20461;-42
2021/10/18 01:37:45;;;;;;;25.03;16.00;;;7.90;81.30;;;;;;5078148;28;20453;-42
2021/10/18 01:40:14;;;;;;;25.37;16.43;;;7.90;81.30;;;;;;5078710;28;20442;-41
2021/10/18 01:42:42;;;;;;;25.97;16.00;;;7.90;81.40;;;;;;5077130;28;20456;-41
2021/10/18 01:45:11;;;;;;;24.27;16.13;;;7.80;81.40;;;;;;5081396;28;20456;-41
2021/10/18 01:47:38;;;;;;;24.87;17.60;;;7.80;81.40;;;;;;5061901;28;20452;-41
2021/10/18 01:50:11;;;;;;;26.63;15.27;;;7.80;81.50;;;;;;5075600;28;20519;-42
2021/10/18 01:52:38;;;;;;;23.27;16.00;;;7.80;81.50;;;;;;5077408;28;20457;-41
2021/10/18 01:55:06;;;;;;;25.90;16.60;;;7.80;81.50;;;;;;5073483;28;20454;-42
2021/10/18 01:57:33;;;;;;;25.83;15.50;;;7.70;81.50;;;;;;5075741;28;20449;-41
2021/10/18 02:00:05;;;;;;;18.17;14.37;;;7.70;81.60;;;;;;5059406;28;20570;-41
2021/10/18 02:02:31;;;;;;;26.50;15.70;;;7.70;81.70;;;;;;5077008;28;20453;-42
2021/10/18 02:04:58;;;;;;;21.80;14.97;;;7.70;81.80;;;;;;5076360;28;20542;-42
2021/10/18 02:07:25;;;;;;;25.03;14.90;;;7.70;81.80;;;;;;5073971;28;20454;-42
2021/10/18 02:09:55;;;;;;;24.00;15.07;;;7.70;81.60;;;;;;5080831;28;20445;-41
2021/10/18 02:12:23;;;;;;;24.13;14.70;;;7.70;81.70;;;;;;5073671;28;20461;-41
2021/10/18 02:14:50;;;;;;;23.53;15.53;;;7.70;81.70;;;;;;5080044;28;20459;-42
2021/10/18 02:17:17;;;;;;;23.40;18.10;;;7.70;81.80;;;;;;5076119;28;20455;-41
2021/10/18 02:19:44;;;;;;;23.77;14.90;;;7.70;81.90;;;;;;5074216;28;20461;-43
2021/10/18 02:22:11;;;;;;;21.53;14.97;;;7.70;81.80;;;;;;5079947;28;20464;-43
2021/10/18 02:24:38;;;;;;;22.20;13.80;;;7.70;81.80;;;;;;5059873;28;20492;-43
2021/10/18 02:27:04;;;;;;;23.40;15.43;;;7.70;81.80;;;;;;5062174;28;20438;-43
2021/10/18 02:29:31;;;;;;;22.33;16.83;;;7.60;81.70;;;;;;5058265;28;20442;-43
2021/10/18 02:31:58;;;;;;;21.07;13.63;;;7.60;81.80;;;;;;5069703;28;20989;-43
2021/10/18 02:34:24;;;;;;;23.70;14.90;;;7.60;81.80;;;;;;5076358;28;20859;-43
2021/10/18 02:36:51;;;;;;;18.37;13.63;;;7.60;81.70;;;;;;5061759;28;20453;-43
2021/10/18 02:39:18;;;;;;;24.47;15.30;;;7.50;81.80;;;;;;5082145;28;20951;-45
2021/10/18 02:41:45;;;;;;;23.73;16.03;;;7.50;81.90;;;;;;5068238;28;20450;-45
2021/10/18 02:44:11;;;;;;;25.53;14.57;;;7.50;82.00;;;;;;5087784;28;20488;-45
2021/10/18 02:46:38;;;;;;;23.27;15.23;;;7.50;81.90;;;;;;5089142;28;20459;-45
2021/10/18 02:49:05;;;;;;;21.43;14.93;;;7.60;81.60;;;;;;5087066;28;20503;-45
2021/10/18 02:51:31;;;;;;;26.03;15.27;;;7.60;81.50;;;;;;5088496;28;20454;-45
2021/10/18 02:53:59;;;;;;;19.23;13.83;;;7.50;81.60;;;;;;5087035;28;20460;-45
2021/10/18 02:56:26;;;;;;;18.43;12.87;;;7.50;81.40;;;;;;5067702;28;20444;-45
2021/10/18 02:58:53;;;;;;;25.67;15.30;;;7.50;81.50;;;;;;5088151;28;20441;-45
2021/10/18 03:01:19;;;;;;;23.20;14.50;;;7.50;81.60;;;;;;5086249;28;20468;-45
2021/10/18 03:03:46;;;;;;;22.60;14.80;;;7.50;81.50;;;;;;5091482;28;20492;-44
2021/10/18 03:06:13;;;;;;;21.17;14.37;;;7.50;81.50;;;;;;5091204;28;20445;-44
2021/10/18 03:08:40;;;;;;;22.33;14.10;;;7.50;81.60;;;;;;5089081;28;20526;-44
2021/10/18 03:11:06;;;;;;;23.43;15.40;;;7.40;81.70;;;;;;5085284;28;20839;-44
2021/10/18 03:13:33;;;;;;;22.90;13.47;;;7.40;81.90;;;;;;5088218;28;20450;-44
2021/10/18 03:16:00;;;;;;;29.13;16.00;;;7.40;81.90;;;;;;5086493;28;20464;-44
2021/10/18 03:18:27;;;;;;;18.50;14.03;;;7.40;81.80;;;;;;5082348;28;20874;-44
2021/10/18 03:20:53;;;;;;;23.30;15.43;;;7.40;81.80;;;;;;5086485;28;20445;-44
2021/10/18 03:23:20;;;;;;;21.67;13.87;;;7.40;81.80;;;;;;5083835;28;20470;-44
2021/10/18 03:25:47;;;;;;;19.30;13.13;;;7.40;81.90;;;;;;5087120;28;20456;-45
2021/10/18 03:28:14;;;;;;;22.00;12.70;;;7.40;81.90;;;;;;5083011;28;20454;-45
2021/10/18 03:30:41;;;;;;;20.83;13.00;;;7.40;81.90;;;;;;5070635;28;20460;-45
2021/10/18 03:33:08;;;;;;;21.67;14.00;;;7.30;81.90;;;;;;5088144;28;20861;-45
2021/10/18 03:35:34;;;;;;;23.23;12.93;;;7.40;81.80;;;;;;5088598;28;21000;-45
2021/10/18 03:38:01;;;;;;;23.77;13.40;;;7.40;81.50;;;;;;5099072;28;20456;-45
2021/10/18 03:40:28;;;;;;;19.30;12.60;;;7.40;81.50;;;;;;5093165;28;20461;-45
2021/10/18 03:42:55;;;;;;;21.73;14.90;;;7.30;81.40;;;;;;5090515;28;20441;-45
2021/10/18 03:45:21;;;;;;;20.57;13.00;;;7.30;81.50;;;;;;5092711;28;20491;-45
2021/10/18 03:47:48;;;;;;;20.67;14.23;;;7.30;81.50;;;;;;5092615;28;20458;-45
2021/10/18 03:50:15;;;;;;;19.13;12.20;;;7.30;81.40;;;;;;5090572;28;20457;-45
2021/10/18 03:52:43;;;;;;;16.60;11.97;;;7.20;81.40;;;;;;5077264;28;20480;-45
2021/10/18 03:55:10;;;;;;;12.47;9.83;;;7.30;81.30;;;;;;5090729;28;20481;-45
2021/10/18 03:57:37;;;;;;;15.00;10.87;;;7.20;81.40;;;;;;5088017;28;20465;-45
2021/10/18 04:00:05;;;;;;;16.03;9.60;;;7.20;81.50;;;;;;5085491;28;20856;-45
2021/10/18 04:02:32;;;;;;;15.17;10.57;;;7.20;81.60;;;;;;5072548;28;20457;-45
2021/10/18 04:04:59;;;;;;;16.50;10.23;;;7.20;81.70;;;;;;5091998;28;20477;-44
2021/10/18 04:07:26;;;;;;;14.93;10.30;;;7.10;81.90;;;;;;5088155;28;21313;-44
2021/10/18 04:09:53;;;;;;;12.37;9.70;;;7.10;82.00;;;;;;5092904;28;20835;-44
2021/10/18 04:12:19;;;;;;;14.77;11.90;;;7.20;82.10;;;;;;5090515;28;20457;-45
2021/10/18 04:14:46;;;;;;;15.50;9.40;;;7.20;82.30;;;;;;5093413;28;20454;-45
2021/10/18 04:17:13;;;;;;;17.20;10.17;;;7.20;82.40;;;;;;5072457;28;20449;-45
2021/10/18 04:19:39;;;;;;;19.33;10.73;;;7.20;82.50;;;;;;5090671;28;20996;-45
2021/10/18 04:22:06;;;;;;;19.47;12.20;;;7.20;82.80;;;;;;5089375;28;20451;-45
2021/10/18 04:24:33;;;;;;;16.57;12.17;;;7.30;83.00;;;;;;5073091;28;20845;-45
2021/10/18 04:26:59;;;;;;;16.00;10.73;;;7.30;83.10;;;;;;5090325;28;20449;-45
2021/10/18 04:29:26;;;;;;;19.53;11.00;;;7.30;83.20;;;;;;5074096;28;20454;-45
2021/10/18 04:31:57;;;;;;;17.97;10.63;;;7.30;83.30;;;;;;5086575;28;20445;-45
2021/10/18 04:34:25;;;;;;;12.43;9.57;;;7.40;83.30;;;;;;5091915;28;21100;-45
2021/10/18 04:36:53;;;;;;;17.30;10.57;;;7.40;83.30;;;;;;5088430;28;21029;-45
2021/10/18 04:39:21;;;;;;;17.30;10.97;;;7.40;83.30;;;;;;5087369;28;20450;-45
2021/10/18 04:41:47;;;;;;;20.07;11.47;;;7.40;83.20;;;;;;5090369;28;20465;-45
2021/10/18 04:44:14;;;;;;;15.77;11.07;;;7.50;83.20;;;;;;5078845;28;20489;-45
2021/10/18 04:46:41;;;;;;;15.47;10.40;;;7.50;83.10;;;;;;5088587;28;20460;-45
2021/10/18 04:49:08;;;;;;;20.07;10.70;;;7.50;83.10;;;;;;5084738;28;20446;-45
2021/10/18 04:51:35;;;;;;;20.10;10.50;;;7.50;83.20;;;;;;5071262;28;20464;-45
2021/10/18 04:54:03;;;;;;;20.20;10.57;;;7.50;83.30;;;;;;5092269;28;20449;-45
2021/10/18 04:56:29;;;;;;;23.80;11.10;;;7.50;83.40;;;;;;5089147;28;20449;-45
2021/10/18 04:58:56;;;;;;;12.97;9.37;;;7.50;83.40;;;;;;5085587;28;20458;-45
2021/10/18 05:01:23;;;;;;;19.40;11.60;;;7.50;83.60;;;;;;5073768;28;20449;-45
2021/10/18 05:03:50;;;;;;;18.80;11.53;;;7.50;83.60;;;;;;5073858;28;20545;-44
2021/10/18 05:06:16;;;;;;;21.67;11.90;;;7.60;83.70;;;;;;5070215;28;20450;-44
2021/10/18 05:08:43;;;;;;;19.40;11.80;;;7.60;83.70;;;;;;5091223;28;20453;-44
2021/10/18 05:11:10;;;;;;;20.90;11.50;;;7.60;83.90;;;;;;5088312;28;20446;-44
2021/10/18 05:13:37;;;;;;;21.63;11.90;;;7.60;84.00;;;;;;5089531;28;20927;-44
2021/10/18 05:16:04;;;;;;;21.60;11.07;;;7.70;84.10;;;;;;5088803;28;20445;-44
2021/10/18 05:18:30;;;;;;;27.60;11.80;;;7.70;84.20;;;;;;5084571;28;20522;-45
2021/10/18 05:20:57;;;;;;;20.87;11.47;;;7.70;84.30;;;;;;5087637;28;20493;-45
2021/10/18 05:23:24;;;;;;;19.10;11.80;;;7.70;84.50;;;;;;5086078;28;20463;-45
2021/10/18 05:25:51;;;;;;;18.10;11.97;;;7.70;84.50;;;;;;5090778;28;20491;-45
2021/10/18 05:28:18;;;;;;;17.27;11.00;;;7.80;84.60;;;;;;5069918;28;20492;-45
2021/10/18 05:30:44;;;;;;;20.93;11.70;;;7.80;84.70;;;;;;5084192;28;20456;-45
2021/10/18 05:33:11;;;;;;;19.93;11.33;;;7.90;84.70;;;;;;5085143;28;20456;-45
2021/10/18 05:35:38;;;;;;;21.50;11.97;;;7.80;84.80;;;;;;5085618;28;20473;-45
2021/10/18 05:38:05;;;;;;;18.50;11.53;;;7.90;84.90;;;;;;5086868;28;20462;-45
2021/10/18 05:40:31;;;;;;;18.37;11.03;;;7.90;84.90;;;;;;5071711;28;20453;-45
2021/10/18 05:42:59;;;;;;;18.10;10.80;;;7.90;85.00;;;;;;5083875;28;20475;-45
2021/10/18 05:45:25;;;;;;;34.70;15.70;;;7.90;85.10;;;;;;5075324;28;20495;-45
2021/10/18 05:47:54;;;;;;;33.13;16.23;;;8.00;85.10;;;;;;5085195;28;20445;-45
2021/10/18 05:50:22;;;;;;;24.37;13.40;;;8.00;85.20;;;;;;5085072;28;20448;-45
2021/10/18 05:52:49;;;;;;;21.30;12.97;;;8.00;85.20;;;;;;5082470;28;20520;-45
2021/10/18 05:55:16;;;;;;;23.83;14.37;;;8.00;85.20;;;;;;5088716;28;20461;-45
2021/10/18 05:57:51;;;;;;;18.40;11.70;;;8.00;85.30;;;;;;5086836;28;20516;-45
2021/10/18 06:00:18;;;;;;;16.70;10.80;;;8.00;85.40;;;;;;5087335;28;21206;-45
2021/10/18 06:02:45;;;;;;;13.67;10.20;;;8.10;85.40;;;;;;5088334;28;20445;-44
2021/10/18 06:05:12;;;;;;;23.60;12.50;;;8.10;85.50;;;;;;5084647;28;20579;-44
2021/10/18 06:07:38;;;;;;;16.27;10.17;;;8.10;85.60;;;;;;5089075;28;20456;-44
2021/10/18 06:10:07;;;;;;;21.07;11.37;;;8.20;85.60;;;;;;5056149;28;20442;-44
2021/10/18 06:12:34;;;;;;;18.73;10.33;;;8.20;85.60;;;;;;5083772;28;20845;-44
2021/10/18 06:15:00;;;;;;;15.40;11.23;;;8.20;85.70;;;;;;5083839;28;20464;-44
2021/10/18 06:17:27;;;;;;;17.60;11.27;;;8.20;85.80;;;;;;5070733;28;20453;-44
2021/10/18 06:19:54;;;;;;;19.23;11.30;;;8.30;85.70;;;;;;5086563;28;20465;-44
2021/10/18 06:22:21;;;;;;;14.33;10.40;;;8.30;85.80;;;;;;5083755;28;20545;-44
2021/10/18 06:24:49;;;;;;;18.00;10.80;;;8.30;85.80;;;;;;5068161;28;20481;-44
2021/10/18 06:27:17;;;;;;;16.77;11.27;;;8.30;85.80;;;;;;5081863;28;20919;-44
2021/10/18 06:29:44;;;;;;;14.60;10.40;;;8.30;85.80;;;;;;5066574;28;20454;-46
2021/10/18 06:32:12;;;;;;;18.33;11.90;;;8.40;85.80;;;;;;5087254;28;20449;-45
2021/10/18 06:34:39;;;;;;;17.77;11.80;;;8.40;85.90;;;;;;5086995;28;20516;-45
2021/10/18 06:37:06;;;;;;;18.83;11.77;;;8.40;85.80;;;;;;5082801;28;20468;-45
2021/10/18 06:39:33;;;;;;;19.77;11.57;;;8.50;85.90;;;;;;5088586;28;20462;-45
2021/10/18 06:41:59;;;;;;;23.67;12.57;;;8.50;85.80;;;;;;5084535;28;20448;-45
2021/10/18 06:44:26;;;;;;;27.30;12.70;;;8.50;85.90;;;;;;5086048;28;20845;-45
2021/10/18 06:46:53;;;;;;;21.10;11.30;;;8.50;86.00;;;;;;5066302;28;20457;-45
2021/10/18 06:49:20;;;;;;;23.63;11.93;;;8.50;86.00;;;;;;5082166;28;20441;-45
2021/10/18 06:51:50;;;;;;;24.17;12.60;;;8.50;86.00;;;;;;5069571;28;20441;-45
2021/10/18 06:54:17;;;;;;;30.83;15.43;;;8.60;86.00;;;;;;5073106;28;20452;-45
2021/10/18 06:56:44;;;;;;;27.47;13.57;;;8.70;85.80;;;;;;5087788;28;20455;-45
2021/10/18 06:59:13;;;;;;;24.77;14.03;;;8.60;85.80;;;;;;5082147;28;20453;-45
2021/10/18 07:01:40;;;;;;;26.87;13.67;;;8.60;85.80;;;;;;5090158;28;20527;-45
2021/10/18 07:04:07;;;;;;;31.80;15.70;;;8.60;85.90;;;;;;5086675;28;20525;-45
2021/10/18 07:06:35;;;;;;;32.00;17.67;;;8.70;85.90;;;;;;5081679;28;20853;-45
2021/10/18 07:09:03;;;;;;;36.00;16.53;;;8.70;85.90;;;;;;5071315;28;20586;-45
2021/10/18 07:11:30;;;;;;;29.73;16.70;;;8.70;85.80;;;;;;5090692;28;20448;-45
2021/10/18 07:13:56;;;;;;;36.33;17.00;;;8.70;85.80;;;;;;5074380;28;20949;-45
2021/10/18 07:16:23;;;;;;;39.10;19.20;;;8.80;86.10;;;;;;5090547;28;20795;-45
2021/10/18 07:18:50;;;;;;;38.70;17.90;;;8.80;86.10;;;;;;5075583;28;20460;-45
2021/10/18 07:21:16;;;;;;;38.60;17.93;;;8.80;86.10;;;;;;5088792;28;20461;-45
2021/10/18 07:23:46;;;;;;;45.43;20.60;;;8.80;86.10;;;;;;5077520;28;20470;-45
2021/10/18 07:26:12;;;;;;;40.30;20.10;;;8.90;86.00;;;;;;5087688;28;20548;-45
2021/10/18 07:28:39;;;;;;;35.10;17.40;;;8.90;86.10;;;;;;5087487;28;20450;-45
2021/10/18 07:31:06;;;;;;;33.63;15.87;;;8.90;86.10;;;;;;5088391;28;20472;-45
2021/10/18 07:33:33;;;;;;;32.00;15.30;;;8.80;86.40;;;;;;5088978;28;20445;-45
2021/10/18 07:36:07;;;;;;;39.87;16.10;;;8.90;86.60;;;;;;5090770;28;21010;-45
2021/10/18 07:38:38;;;;;;;33.13;16.97;;;8.90;86.30;;;;;;5069439;28;20980;-45
2021/10/18 07:41:07;;;;;;;37.60;16.50;;;8.90;86.30;;;;;;5088726;28;20563;-45
2021/10/18 07:43:33;;;;;;;36.87;15.90;;;8.90;86.20;;;;;;5088576;28;20801;-45
2021/10/18 07:46:02;;;;;;;34.90;17.03;;;9.00;86.20;;;;;;5086854;28;20842;-45
2021/10/18 07:48:28;;;;;;;31.17;14.37;;;8.90;86.30;;;;;;5089302;28;20564;-45
2021/10/18 07:50:55;;;;;;;29.23;15.60;;;9.00;86.20;;;;;;5089333;28;20454;-45
2021/10/18 07:53:22;;;;;;;37.17;16.00;;;9.00;86.30;;;;;;5074883;28;20460;-45
2021/10/18 07:55:50;;;;;;;32.83;15.90;;;9.00;86.40;;;;;;5085096;28;20452;-44
2021/10/18 07:58:21;;;;;;;30.37;16.80;;;9.10;86.30;;;;;;5070779;28;20450;-44
2021/10/18 08:00:48;;;;;;;39.37;17.10;;;9.10;86.40;;;;;;5087005;28;20831;-44
2021/10/18 08:03:15;;;;;;;36.77;18.57;;;9.10;86.30;;;;;;5089851;28;20503;-44
2021/10/18 08:05:42;;;;;;;34.27;16.57;;;9.10;86.40;;;;;;5088252;28;20490;-45
2021/10/18 08:08:11;;;;;;;40.67;17.00;;;9.10;86.30;;;;;;5088527;28;20529;-45
2021/10/18 08:10:38;;;;;;;37.90;17.10;;;9.20;86.40;;;;;;5088563;28;20449;-45
2021/10/18 08:13:05;;;;;;;33.43;17.60;;;9.20;86.40;;;;;;5087337;28;20524;-45
2021/10/18 08:15:31;;;;;;;36.83;19.00;;;9.20;86.40;;;;;;5089883;28;20452;-45
2021/10/18 08:17:58;;;;;;;48.00;18.20;;;9.20;86.50;;;;;;5090896;28;20460;-45
2021/10/18 08:20:25;;;;;;;50.73;19.00;;;9.20;86.50;;;;;;5071161;28;20449;-45
2021/10/18 08:22:52;;;;;;;44.33;19.90;;;9.20;86.60;;;;;;5069235;28;20457;-45
2021/10/18 08:25:19;;;;;;;47.13;21.67;;;9.30;86.40;;;;;;5089985;28;20479;-45
2021/10/18 08:27:47;;;;;;;49.37;18.63;;;9.30;86.50;;;;;;5088710;28;20535;-45
2021/10/18 08:30:15;;;;;;;44.40;21.13;;;9.30;86.70;;;;;;5091661;28;20441;-45
2021/10/18 08:32:42;;;;;;;39.67;19.80;;;9.30;86.70;;;;;;5075008;28;20464;-45
2021/10/18 08:35:10;;;;;;;45.03;20.90;;;9.30;86.70;;;;;;5087407;28;20465;-45
2021/10/18 08:40:33;;;;;;;42.03;20.77;;;9.40;86.70;;;;;;5094376;28;20450;-46
2021/10/18 08:43:18;;;;;;;39.70;21.10;;;9.40;86.70;;;;;;5091070;28;20436;-46
2021/10/18 08:45:46;;;;;;;39.20;20.30;;;9.50;86.70;;;;;;5085228;28;20558;-46
2021/10/18 08:48:13;;;;;;;36.33;19.97;;;9.50;86.80;;;;;;5086585;28;20446;-46
2021/10/18 08:50:40;;;;;;;43.20;21.03;;;9.60;86.70;;;;;;5069373;28;20457;-46
2021/10/18 08:53:07;;;;;;;36.67;19.67;;;9.60;86.70;;;;;;5072538;28;20465;-45
2021/10/18 08:55:39;;;;;;;40.57;20.83;;;9.70;86.60;;;;;;5087041;28;20528;-45
2021/10/18 08:58:07;;;;;;;41.67;20.57;;;9.70;86.60;;;;;;5088839;28;20453;-45
2021/10/18 09:00:40;;;;;;;42.07;20.87;;;9.70;86.60;;;;;;5085738;28;20488;-45
2021/10/18 09:03:19;;;;;;;39.70;21.33;;;9.70;86.60;;;;;;5090179;28;20937;-45
2021/10/18 09:05:50;;;;;;;47.10;21.67;;;9.80;86.50;;;;;;5069476;28;20481;-46
2021/10/18 09:08:41;;;;;;;49.23;22.37;;;9.80;86.20;;;;;;5089827;28;20502;-45
2021/10/18 09:11:14;;;;;;;46.63;22.73;;;9.90;86.20;;;;;;5091973;28;20870;-45
2021/10/18 09:13:52;;;;;;;43.90;23.97;;;9.90;86.30;;;;;;5085310;28;20444;-45
2021/10/18 09:16:46;;;;;;;57.37;22.50;;;9.90;86.30;;;;;;5071960;28;20458;-45
2021/10/18 09:19:15;;;;;;;42.70;22.70;;;9.90;86.30;;;;;;5077197;28;20463;-45
2021/10/18 09:21:50;;;;;;;47.80;23.23;;;10.00;86.20;;;;;;5088935;28;20535;-45
2021/10/18 09:24:28;;;;;;;50.63;23.70;;;10.00;86.20;;;;;;5087145;28;20453;-45
2021/10/18 09:26:58;;;;;;;51.07;24.73;;;10.10;86.10;;;;;;5089478;28;20480;-45
2021/10/18 09:29:44;;;;;;;48.20;24.93;;;10.10;86.10;;;;;;5085551;28;20454;-44
2021/10/18 09:32:19;;;;;;;42.10;22.47;;;10.10;86.10;;;;;;5085827;28;20533;-45
2021/10/18 09:34:47;;;;;;;50.23;23.03;;;10.20;86.00;;;;;;5086682;28;20499;-45
2021/10/18 09:37:15;;;;;;;52.87;24.70;;;10.20;85.90;;;;;;5088098;28;20453;-45
2021/10/18 09:39:44;;;;;;;63.03;24.57;;;10.20;85.70;;;;;;5092448;28;20454;-45
2021/10/18 09:42:14;;;;;;;49.10;24.27;;;10.30;85.70;;;;;;5088691;28;20480;-45
2021/10/18 10:53:30;;;;;;;52.97;28.20;;;10.90;83.10;;;;;;5079444;28;20984;-45
2021/10/18 10:56:16;;;;;;;51.70;27.80;;;11.00;83.00;;;;;;5090162;28;20456;-45
2021/10/18 10:58:51;;;;;;;44.57;27.00;;;11.00;83.00;;;;;;5089738;28;20446;-45
2021/10/18 11:01:41;;;;;;;51.60;29.40;;;11.00;83.00;;;;;;5092794;28;20455;-45
2021/10/18 11:04:29;;;;;;;50.60;27.33;;;11.00;82.90;;;;;;5087563;28;20476;-44
2021/10/18 11:07:00;;;;;;;45.57;26.60;;;11.10;82.90;;;;;;5075459;28;20484;-45
2021/10/18 11:09:38;;;;;;;47.63;27.10;;;11.10;82.80;;;;;;5088356;28;20461;-45
2021/10/18 11:12:08;;;;;;;45.87;28.47;;;11.10;82.80;;;;;;5086511;28;20456;-44
2021/10/18 11:14:35;;;;;;;47.00;27.60;;;11.20;82.80;;;;;;5091375;28;20531;-45
2021/10/18 11:17:02;;;;;;;48.40;26.70;;;11.20;82.80;;;;;;5095254;28;21155;-45
2021/10/18 11:19:29;;;;;;;47.37;29.60;;;11.30;81.90;;;;;;5091839;28;20537;-45
2021/10/18 11:21:59;;;;;;;46.87;26.70;;;11.40;81.80;;;;;;5071369;28;20448;-45
2021/10/18 11:24:39;;;;;;;53.40;28.57;;;11.30;81.60;;;;;;5071312;28;20482;-45
2021/10/18 11:27:06;;;;;;;47.70;28.10;;;11.30;81.80;;;;;;5089592;28;20484;-45
2021/10/18 11:29:34;;;;;;;47.60;27.77;;;11.30;81.60;;;;;;5087193;28;20445;-45
2021/10/18 11:32:09;;;;;;;50.57;28.67;;;11.40;81.50;;;;;;5089355;28;20456;-45
2021/10/18 11:34:36;;;;;;;50.30;26.43;;;11.40;81.40;;;;;;5089220;28;20487;-45
2021/10/18 11:37:03;;;;;;;44.20;26.27;;;11.40;81.10;;;;;;5073675;28;20520;-45
2021/10/18 11:39:32;;;;;;;44.83;25.83;;;11.50;81.10;;;;;;5074507;28;20455;-45
2021/10/18 11:41:58;;;;;;;42.90;27.10;;;11.50;81.10;;;;;;5089684;28;20468;-45
2021/10/18 11:44:45;;;;;;;40.13;25.20;;;11.50;81.00;;;;;;5088684;28;20459;-45
2021/10/18 11:47:26;;;;;;;52.83;27.87;;;11.50;80.90;;;;;;5087622;28;20483;-45
2021/10/18 11:50:25;;;;;;;48.83;28.87;;;11.50;80.70;;;;;;5089443;28;20452;-45
2021/10/18 11:53:00;;;;;;;51.33;28.43;;;11.50;80.40;;;;;;5068376;28;20458;-45
2021/10/18 11:55:32;;;;;;;46.67;29.00;;;11.50;80.40;;;;;;5090624;28;20453;-45
2021/10/18 11:58:05;;;;;;;49.27;28.07;;;11.50;80.50;;;;;;5091666;28;20549;-45
2021/10/18 12:00:41;;;;;;;46.90;28.63;;;11.50;80.50;;;;;;5075563;28;20441;-45
2021/10/18 12:03:09;;;;;;;45.63;29.73;;;11.50;80.50;;;;;;5093042;28;20471;-44
2021/10/18 12:05:46;;;;;;;46.60;27.27;;;11.40;80.70;;;;;;5091909;28;20458;-44
2021/10/18 12:08:14;;;;;;;48.97;27.50;;;11.40;80.80;;;;;;5072424;28;20461;-44
2021/10/18 12:10:43;;;;;;;42.47;26.50;;;11.40;80.80;;;;;;5091873;28;20453;-45
2021/10/18 12:13:16;;;;;;;45.27;28.60;;;11.40;80.90;;;;;;5095852;28;20972;-45
2021/10/18 12:15:52;;;;;;;43.47;26.43;;;11.40;81.00;;;;;;5086164;28;20434;-45
2021/10/18 12:18:22;;;;;;;48.30;29.27;;;11.50;80.90;;;;;;5075883;28;20457;-45
2021/10/18 12:20:52;;;;;;;42.10;26.93;;;11.50;80.90;;;;;;5085021;28;20458;-45
2021/10/18 12:23:30;;;;;;;51.03;27.10;;;11.60;80.90;;;;;;5091628;28;20743;-45
2021/10/18 12:26:05;;;;;;;42.60;25.00;;;11.60;80.90;;;;;;5058824;28;20510;-45
2021/10/18 12:28:45;;;;;;;44.80;26.67;;;11.70;80.70;;;;;;5069098;28;20540;-45
2021/10/18 12:31:30;;;;;;;44.60;25.47;;;11.70;80.60;;;;;;5089943;28;20983;-45
2021/10/18 12:34:19;;;;;;;42.40;23.67;;;11.80;80.60;;;;;;5087945;28;20491;-45
2021/10/18 12:36:56;;;;;;;40.93;24.07;;;11.80;80.50;;;;;;5087237;28;20488;-45
2021/10/18 12:39:43;;;;;;;36.53;21.60;;;11.80;80.20;;;;;;5091503;28;20446;-45
2021/10/18 12:42:33;;;;;;;40.13;25.27;;;11.80;79.90;;;;;;5091698;28;20463;-45
2021/10/18 12:45:13;;;;;;;40.60;24.33;;;11.90;79.80;;;;;;5090991;28;20535;-45
2021/10/18 12:47:47;;;;;;;38.20;23.37;;;11.90;79.80;;;;;;5088717;28;20495;-45
2021/10/18 12:50:19;;;;;;;32.80;21.07;;;11.90;79.60;;;;;;5079056;28;20443;-45
2021/10/18 12:52:55;;;;;;;40.50;23.67;;;11.90;79.60;;;;;;5087157;28;20446;-45
2021/10/18 12:55:23;;;;;;;35.87;22.30;;;11.90;79.60;;;;;;5084223;28;20888;-45
2021/10/18 12:57:58;;;;;;;34.17;22.23;;;11.90;79.60;;;;;;5087006;28;20478;-45
2021/10/18 13:00:33;;;;;;;38.70;24.80;;;11.90;79.70;;;;;;5088575;28;20483;-45
2021/10/18 13:03:09;;;;;;;38.43;24.57;;;12.00;79.80;;;;;;5083172;28;21034;-45
2021/10/18 13:05:45;;;;;;;35.10;22.67;;;12.10;79.60;;;;;;5067556;28;20989;-45
2021/10/18 13:08:14;;;;;;;35.63;23.57;;;12.10;79.60;;;;;;5092021;28;20453;-46
2021/10/18 13:10:49;;;;;;;43.67;25.50;;;12.10;79.30;;;;;;5083858;28;20466;-46
2021/10/18 13:13:18;;;;;;;35.80;22.13;;;12.10;79.20;;;;;;5086652;28;20516;-46
2021/10/18 13:15:50;;;;;;;30.80;19.60;;;12.10;78.90;;;;;;5071416;28;20456;-46
2021/10/18 13:18:18;;;;;;;30.37;20.83;;;12.10;79.10;;;;;;5088161;28;20634;-45
2021/10/18 13:20:46;;;;;;;35.07;22.70;;;12.20;78.70;;;;;;5073028;28;20527;-45
2021/10/18 13:23:21;;;;;;;31.83;21.10;;;12.20;78.50;;;;;;5087893;28;20803;-45
2021/10/18 13:25:49;;;;;;;36.57;23.57;;;12.20;78.60;;;;;;5091559;28;20448;-45
2021/10/18 13:28:20;;;;;;;37.73;25.00;;;12.20;78.50;;;;;;5091700;28;20825;-45
2021/10/18 13:30:47;;;;;;;35.30;22.70;;;12.20;78.60;;;;;;5090767;28;20501;-45
2021/10/18 13:33:14;;;;;;;37.30;23.70;;;12.20;78.60;;;;;;5074987;28;20459;-45
2021/10/18 13:35:41;;;;;;;41.67;28.00;;;12.20;78.60;;;;;;5084517;28;20467;-45
2021/10/18 13:38:09;;;;;;;36.87;22.83;;;12.20;78.60;;;;;;5085254;28;20465;-46
2021/10/18 13:40:36;;;;;;;39.30;24.80;;;12.30;78.70;;;;;;5091533;28;20445;-45
2021/10/18 13:43:05;;;;;;;33.23;21.70;;;12.30;78.70;;;;;;5083092;28;20449;-46
2021/10/18 13:45:32;;;;;;;34.73;22.00;;;12.30;78.70;;;;;;5073825;28;20456;-45
2021/10/18 13:48:00;;;;;;;38.83;23.87;;;12.30;78.60;;;;;;5088084;28;20963;-45
2021/10/18 13:50:26;;;;;;;36.90;23.53;;;12.30;78.70;;;;;;5071836;28;20453;-45
2021/10/18 13:52:54;;;;;;;34.60;21.40;;;12.30;78.80;;;;;;5086836;28;20475;-45
2021/10/18 13:55:23;;;;;;;35.53;26.07;;;12.30;78.80;;;;;;5086130;28;20445;-45